sensor_id;sensor_type;location;lat;lon;timestamp;temperature;humidity
9949;DHT22;5013;51.840;8.276;2023-06-14T00:00:11;19.40;99.90
9949;DHT22;5013;51.840;8.276;2023-06-14T00:02:39;19.40;99.90
9949;DHT22;5013;51.840;8.276;2023-06-14T00:05:05;19.30;99.90
9949;DHT22;5013;51.840;8.276;2023-06-14T00:07:41;19.30;99.90
9949;DHT22;5013;51.840;8.276;2023-06-14T00:10:14;19.20;99.90
9949;DHT22;5013;51.840;8.276;2023-06-14T00:12:40;19.10;99.90
9949;DHT22;5013;51.840;8.276;2023-06-14T00:15:07;19.00;99.90
9949;DHT22;5013;51.840;8.276;2023-06-14T00:17:35;19.00;99.90
9949;DHT22;5013;51.840;8.276;2023-06-14T00:20:03;19.00;99.90
9949;DHT22;5013;51.840;8.276;2023-06-14T00:22:32;19.00;99.90
9949;DHT22;5013;51.840;8.276;2023-06-14T00:24:58;19.00;99.90
9949;DHT22;5013;51.840;8.276;2023-06-14T00:27:24;18.90;99.90
9949;DHT22;5013;51.840;8.276;2023-06-14T00:29:50;18.90;99.90
9949;DHT22;5013;51.840;8.276;2023-06-14T00:32:15;18.80;99.90
9949;DHT22;5013;51.840;8.276;2023-06-14T00:34:41;18.80;99.90
9949;DHT22;5013;51.840;8.276;2023-06-14T00:37:07;18.90;99.90
9949;DHT22;5013;51.840;8.276;2023-06-14T00:39:32;18.80;99.90
9949;DHT22;5013;51.840;8.276;2023-06-14T00:41:58;18.70;99.90
9949;DHT22;5013;51.840;8.276;2023-06-14T00:44:24;18.70;99.90
9949;DHT22;5013;51.840;8.276;2023-06-14T00:46:50;18.70;99.90
9949;DHT22;5013;51.840;8.276;2023-06-14T00:49:16;18.60;99.90
9949;DHT22;5013;51.840;8.276;2023-06-14T00:51:42;18.60;99.90
9949;DHT22;5013;51.840;8.276;2023-06-14T00:54:08;18.60;99.90
9949;DHT22;5013;51.840;8.276;2023-06-14T00:56:37;18.60;99.90
9949;DHT22;5013;51.840;8.276;2023-06-14T00:59:04;18.50;99.90
9949;DHT22;5013;51.840;8.276;2023-06-14T01:01:30;18.40;99.90
9949;DHT22;5013;51.840;8.276;2023-06-14T01:04:01;18.40;99.90
9949;DHT22;5013;51.840;8.276;2023-06-14T01:12:47;18.30;99.90
9949;DHT22;5013;51.840;8.276;2023-06-14T01:15:15;18.30;99.90
9949;DHT22;5013;51.840;8.276;2023-06-14T01:17:42;18.30;99.90
9949;DHT22;5013;51.840;8.276;2023-06-14T01:20:13;18.30;99.90
9949;DHT22;5013;51.840;8.276;2023-06-14T01:22:53;18.30;1.00
9949;DHT22;5013;51.840;8.276;2023-06-14T01:25:22;18.30;99.90
9949;DHT22;5013;51.840;8.276;2023-06-14T01:27:57;18.20;99.90
9949;DHT22;5013;51.840;8.276;2023-06-14T01:30:24;18.30;99.90
9949;DHT22;5013;51.840;8.276;2023-06-14T01:32:54;18.10;1.00
9949;DHT22;5013;51.840;8.276;2023-06-14T01:35:20;18.10;1.00
9949;DHT22;5013;51.840;8.276;2023-06-14T01:37:48;18.10;1.00
9949;DHT22;5013;51.840;8.276;2023-06-14T01:40:15;18.00;1.00
9949;DHT22;5013;51.840;8.276;2023-06-14T01:42:41;18.00;1.00
9949;DHT22;5013;51.840;8.276;2023-06-14T01:45:09;18.00;1.00
9949;DHT22;5013;51.840;8.276;2023-06-14T01:47:35;17.90;1.00
9949;DHT22;5013;51.840;8.276;2023-06-14T01:50:05;17.80;1.00
9949;DHT22;5013;51.840;8.276;2023-06-14T01:52:31;17.70;1.00
9949;DHT22;5013;51.840;8.276;2023-06-14T01:54:57;17.60;1.00
9949;DHT22;5013;51.840;8.276;2023-06-14T01:57:24;17.70;1.00
9949;DHT22;5013;51.840;8.276;2023-06-14T01:59:50;17.60;1.00
9949;DHT22;5013;51.840;8.276;2023-06-14T02:02:16;17.40;1.00
9949;DHT22;5013;51.840;8.276;2023-06-14T02:04:45;17.50;1.00
9949;DHT22;5013;51.840;8.276;2023-06-14T02:07:15;17.60;1.00
9949;DHT22;5013;51.840;8.276;2023-06-14T02:09:44;17.50;1.00
9949;DHT22;5013;51.840;8.276;2023-06-14T02:12:10;17.50;1.00
9949;DHT22;5013;51.840;8.276;2023-06-14T02:14:36;17.40;1.00
9949;DHT22;5013;51.840;8.276;2023-06-14T02:17:01;17.50;1.00
9949;DHT22;5013;51.840;8.276;2023-06-14T02:19:33;17.40;1.00
9949;DHT22;5013;51.840;8.276;2023-06-14T02:21:58;17.40;1.00
9949;DHT22;5013;51.840;8.276;2023-06-14T02:24:36;17.50;1.00
9949;DHT22;5013;51.840;8.276;2023-06-14T02:27:03;17.40;1.00
9949;DHT22;5013;51.840;8.276;2023-06-14T02:29:29;17.40;1.00
9949;DHT22;5013;51.840;8.276;2023-06-14T02:31:54;17.30;1.00
9949;DHT22;5013;51.840;8.276;2023-06-14T02:34:20;17.40;1.00
9949;DHT22;5013;51.840;8.276;2023-06-14T02:36:47;17.30;1.00
9949;DHT22;5013;51.840;8.276;2023-06-14T02:39:13;17.30;1.00
9949;DHT22;5013;51.840;8.276;2023-06-14T02:41:39;17.10;1.00
9949;DHT22;5013;51.840;8.276;2023-06-14T02:44:05;17.10;1.00
9949;DHT22;5013;51.840;8.276;2023-06-14T02:46:31;17.00;1.00
9949;DHT22;5013;51.840;8.276;2023-06-14T02:48:57;17.10;1.00
9949;DHT22;5013;51.840;8.276;2023-06-14T02:51:22;17.00;1.00
9949;DHT22;5013;51.840;8.276;2023-06-14T02:53:48;17.00;1.00
9949;DHT22;5013;51.840;8.276;2023-06-14T02:56:14;16.90;1.00
9949;DHT22;5013;51.840;8.276;2023-06-14T02:58:39;16.90;1.00
9949;DHT22;5013;51.840;8.276;2023-06-14T03:01:06;16.90;1.00
9949;DHT22;5013;51.840;8.276;2023-06-14T03:03:33;16.80;1.00
9949;DHT22;5013;51.840;8.276;2023-06-14T03:05:58;16.80;1.00
9949;DHT22;5013;51.840;8.276;2023-06-14T03:08:30;16.80;1.00
9949;DHT22;5013;51.840;8.276;2023-06-14T03:10:57;16.80;1.00
9949;DHT22;5013;51.840;8.276;2023-06-14T03:13:23;16.80;1.00
9949;DHT22;5013;51.840;8.276;2023-06-14T03:15:48;16.80;1.00
9949;DHT22;5013;51.840;8.276;2023-06-14T03:18:17;16.80;1.00
9949;DHT22;5013;51.840;8.276;2023-06-14T03:20:43;16.80;1.00
9949;DHT22;5013;51.840;8.276;2023-06-14T03:23:11;16.80;1.00
9949;DHT22;5013;51.840;8.276;2023-06-14T03:25:37;16.80;1.00
9949;DHT22;5013;51.840;8.276;2023-06-14T03:28:04;16.70;1.00
9949;DHT22;5013;51.840;8.276;2023-06-14T03:30:30;16.70;1.00
9949;DHT22;5013;51.840;8.276;2023-06-14T03:32:56;16.70;1.00
9949;DHT22;5013;51.840;8.276;2023-06-14T03:35:23;16.70;1.00
9949;DHT22;5013;51.840;8.276;2023-06-14T03:37:49;16.70;1.00
9949;DHT22;5013;51.840;8.276;2023-06-14T03:40:17;16.70;1.00
9949;DHT22;5013;51.840;8.276;2023-06-14T03:42:43;16.70;1.00
9949;DHT22;5013;51.840;8.276;2023-06-14T03:45:09;16.80;1.00
9949;DHT22;5013;51.840;8.276;2023-06-14T03:47:35;16.80;1.00
9949;DHT22;5013;51.840;8.276;2023-06-14T03:50:04;16.90;1.00
9949;DHT22;5013;51.840;8.276;2023-06-14T03:52:31;16.90;1.00
9949;DHT22;5013;51.840;8.276;2023-06-14T03:54:56;16.90;1.00
9949;DHT22;5013;51.840;8.276;2023-06-14T03:57:23;16.90;1.00
9949;DHT22;5013;51.840;8.276;2023-06-14T03:59:48;16.90;1.00
9949;DHT22;5013;51.840;8.276;2023-06-14T04:02:15;16.90;1.00
9949;DHT22;5013;51.840;8.276;2023-06-14T04:04:41;17.00;1.00
9949;DHT22;5013;51.840;8.276;2023-06-14T04:07:10;17.00;1.00
9949;DHT22;5013;51.840;8.276;2023-06-14T04:09:37;17.00;1.00
9949;DHT22;5013;51.840;8.276;2023-06-14T04:12:03;17.10;1.00
9949;DHT22;5013;51.840;8.276;2023-06-14T04:14:29;17.10;1.00
9949;DHT22;5013;51.840;8.276;2023-06-14T04:16:56;17.20;1.00
9949;DHT22;5013;51.840;8.276;2023-06-14T04:19:21;17.20;1.00
9949;DHT22;5013;51.840;8.276;2023-06-14T04:21:47;17.30;1.00
9949;DHT22;5013;51.840;8.276;2023-06-14T04:24:12;17.30;1.00
9949;DHT22;5013;51.840;8.276;2023-06-14T04:26:39;17.40;1.00
9949;DHT22;5013;51.840;8.276;2023-06-14T04:29:05;17.40;1.00
9949;DHT22;5013;51.840;8.276;2023-06-14T04:31:32;17.60;1.00
9949;DHT22;5013;51.840;8.276;2023-06-14T04:34:06;17.60;1.00
9949;DHT22;5013;51.840;8.276;2023-06-14T04:36:32;17.70;1.00
9949;DHT22;5013;51.840;8.276;2023-06-14T04:39:00;17.70;1.00
9949;DHT22;5013;51.840;8.276;2023-06-14T04:41:26;17.80;1.00
9949;DHT22;5013;51.840;8.276;2023-06-14T04:43:56;17.80;1.00
9949;DHT22;5013;51.840;8.276;2023-06-14T04:46:29;18.00;1.00
9949;DHT22;5013;51.840;8.276;2023-06-14T04:48:55;18.40;1.00
9949;DHT22;5013;51.840;8.276;2023-06-14T04:51:22;20.40;1.00
9949;DHT22;5013;51.840;8.276;2023-06-14T04:53:55;22.80;99.90
9949;DHT22;5013;51.840;8.276;2023-06-14T04:56:22;24.90;99.90
9949;DHT22;5013;51.840;8.276;2023-06-14T04:58:48;26.20;99.90
9949;DHT22;5013;51.840;8.276;2023-06-14T05:01:14;26.80;99.90
9949;DHT22;5013;51.840;8.276;2023-06-14T05:03:39;27.60;99.90
9949;DHT22;5013;51.840;8.276;2023-06-14T05:06:06;27.90;99.90
9949;DHT22;5013;51.840;8.276;2023-06-14T05:08:32;27.70;99.90
9949;DHT22;5013;51.840;8.276;2023-06-14T05:10:57;27.30;99.90
9949;DHT22;5013;51.840;8.276;2023-06-14T05:13:24;27.20;99.90
9949;DHT22;5013;51.840;8.276;2023-06-14T05:15:49;26.70;99.90
9949;DHT22;5013;51.840;8.276;2023-06-14T05:18:15;26.60;99.90
9949;DHT22;5013;51.840;8.276;2023-06-14T05:20:41;25.90;99.90
9949;DHT22;5013;51.840;8.276;2023-06-14T05:23:07;25.10;99.90
9949;DHT22;5013;51.840;8.276;2023-06-14T05:25:32;24.90;99.90
9949;DHT22;5013;51.840;8.276;2023-06-14T05:27:58;24.90;99.90
9949;DHT22;5013;51.840;8.276;2023-06-14T05:30:24;24.70;99.90
9949;DHT22;5013;51.840;8.276;2023-06-14T05:32:49;24.50;99.90
9949;DHT22;5013;51.840;8.276;2023-06-14T05:35:15;24.70;99.90
9949;DHT22;5013;51.840;8.276;2023-06-14T05:37:41;24.90;99.90
9949;DHT22;5013;51.840;8.276;2023-06-14T05:40:07;24.80;99.90
9949;DHT22;5013;51.840;8.276;2023-06-14T05:42:34;24.80;99.90
9949;DHT22;5013;51.840;8.276;2023-06-14T05:45:00;24.80;99.90
9949;DHT22;5013;51.840;8.276;2023-06-14T05:47:26;24.60;99.90
9949;DHT22;5013;51.840;8.276;2023-06-14T05:49:53;24.30;99.90
9949;DHT22;5013;51.840;8.276;2023-06-14T05:52:18;24.50;99.90
9949;DHT22;5013;51.840;8.276;2023-06-14T05:54:44;24.30;99.90
9949;DHT22;5013;51.840;8.276;2023-06-14T05:57:10;23.70;99.90
9949;DHT22;5013;51.840;8.276;2023-06-14T05:59:36;23.40;99.90
9949;DHT22;5013;51.840;8.276;2023-06-14T06:02:01;23.70;99.90
9949;DHT22;5013;51.840;8.276;2023-06-14T06:04:27;23.50;99.90
9949;DHT22;5013;51.840;8.276;2023-06-14T06:06:53;23.30;99.90
9949;DHT22;5013;51.840;8.276;2023-06-14T06:09:18;23.60;99.90
9949;DHT22;5013;51.840;8.276;2023-06-14T06:11:44;23.50;99.90
9949;DHT22;5013;51.840;8.276;2023-06-14T06:14:10;23.30;99.90
9949;DHT22;5013;51.840;8.276;2023-06-14T06:16:35;22.80;99.90
9949;DHT22;5013;51.840;8.276;2023-06-14T06:19:01;22.80;99.90
9949;DHT22;5013;51.840;8.276;2023-06-14T06:21:26;22.80;99.90
9949;DHT22;5013;51.840;8.276;2023-06-14T06:23:52;23.10;99.90
9949;DHT22;5013;51.840;8.276;2023-06-14T06:26:17;23.50;99.90
9949;DHT22;5013;51.840;8.276;2023-06-14T06:28:43;23.70;99.90
9949;DHT22;5013;51.840;8.276;2023-06-14T06:31:08;23.80;99.90
9949;DHT22;5013;51.840;8.276;2023-06-14T06:33:35;23.60;99.90
9949;DHT22;5013;51.840;8.276;2023-06-14T06:36:00;23.50;99.90
9949;DHT22;5013;51.840;8.276;2023-06-14T06:38:26;23.30;99.90
9949;DHT22;5013;51.840;8.276;2023-06-14T06:40:51;23.20;99.90
9949;DHT22;5013;51.840;8.276;2023-06-14T06:43:19;23.20;99.90
9949;DHT22;5013;51.840;8.276;2023-06-14T06:45:45;23.10;99.90
9949;DHT22;5013;51.840;8.276;2023-06-14T06:48:10;23.20;99.90
9949;DHT22;5013;51.840;8.276;2023-06-14T06:50:36;23.00;99.90
9949;DHT22;5013;51.840;8.276;2023-06-14T06:53:02;23.20;99.90
9949;DHT22;5013;51.840;8.276;2023-06-14T06:55:28;23.30;99.90
9949;DHT22;5013;51.840;8.276;2023-06-14T06:57:53;23.30;99.90
9949;DHT22;5013;51.840;8.276;2023-06-14T07:00:20;23.30;99.90
9949;DHT22;5013;51.840;8.276;2023-06-14T07:02:45;23.00;99.90
9949;DHT22;5013;51.840;8.276;2023-06-14T07:05:11;23.20;99.90
9949;DHT22;5013;51.840;8.276;2023-06-14T07:07:37;23.50;99.90
9949;DHT22;5013;51.840;8.276;2023-06-14T07:10:04;23.50;99.90
9949;DHT22;5013;51.840;8.276;2023-06-14T07:12:31;23.20;99.90
9949;DHT22;5013;51.840;8.276;2023-06-14T07:14:59;23.10;99.90
9949;DHT22;5013;51.840;8.276;2023-06-14T07:17:25;23.20;99.90
9949;DHT22;5013;51.840;8.276;2023-06-14T07:19:50;23.50;99.90
9949;DHT22;5013;51.840;8.276;2023-06-14T07:22:16;23.40;99.90
9949;DHT22;5013;51.840;8.276;2023-06-14T07:24:43;23.40;99.90
9949;DHT22;5013;51.840;8.276;2023-06-14T07:27:08;23.40;99.90
9949;DHT22;5013;51.840;8.276;2023-06-14T07:29:34;23.20;99.90
9949;DHT22;5013;51.840;8.276;2023-06-14T07:31:59;23.10;99.90
9949;DHT22;5013;51.840;8.276;2023-06-14T07:34:25;23.30;99.90
9949;DHT22;5013;51.840;8.276;2023-06-14T07:36:51;23.20;99.90
9949;DHT22;5013;51.840;8.276;2023-06-14T07:39:17;22.90;99.90
9949;DHT22;5013;51.840;8.276;2023-06-14T07:41:42;22.60;99.90
9949;DHT22;5013;51.840;8.276;2023-06-14T07:44:08;23.00;99.90
9949;DHT22;5013;51.840;8.276;2023-06-14T07:46:33;22.90;99.90
9949;DHT22;5013;51.840;8.276;2023-06-14T07:49:00;23.10;99.90
9949;DHT22;5013;51.840;8.276;2023-06-14T07:51:25;23.20;99.90
9949;DHT22;5013;51.840;8.276;2023-06-14T07:53:51;22.90;99.90
9949;DHT22;5013;51.840;8.276;2023-06-14T07:56:17;22.90;99.90
9949;DHT22;5013;51.840;8.276;2023-06-14T07:58:42;23.20;99.90
9949;DHT22;5013;51.840;8.276;2023-06-14T08:01:08;23.40;99.90
9949;DHT22;5013;51.840;8.276;2023-06-14T08:03:34;23.00;99.90
9949;DHT22;5013;51.840;8.276;2023-06-14T08:06:00;23.30;99.90
9949;DHT22;5013;51.840;8.276;2023-06-14T08:08:26;23.50;99.90
9949;DHT22;5013;51.840;8.276;2023-06-14T08:10:52;23.40;99.90
9949;DHT22;5013;51.840;8.276;2023-06-14T08:13:17;23.30;99.90
9949;DHT22;5013;51.840;8.276;2023-06-14T08:15:43;23.00;99.90
9949;DHT22;5013;51.840;8.276;2023-06-14T08:18:09;22.80;99.90
9949;DHT22;5013;51.840;8.276;2023-06-14T08:20:35;23.00;99.90
9949;DHT22;5013;51.840;8.276;2023-06-14T08:23:02;23.30;99.90
9949;DHT22;5013;51.840;8.276;2023-06-14T08:25:29;23.70;99.90
9949;DHT22;5013;51.840;8.276;2023-06-14T08:27:55;23.70;99.90
9949;DHT22;5013;51.840;8.276;2023-06-14T08:30:21;23.60;99.90
9949;DHT22;5013;51.840;8.276;2023-06-14T08:32:47;23.90;99.90
9949;DHT22;5013;51.840;8.276;2023-06-14T08:35:12;24.10;99.90
9949;DHT22;5013;51.840;8.276;2023-06-14T08:37:41;24.30;99.90
9949;DHT22;5013;51.840;8.276;2023-06-14T08:42:51;24.40;99.90
9949;DHT22;5013;51.840;8.276;2023-06-14T08:45:17;24.30;99.90
9949;DHT22;5013;51.840;8.276;2023-06-14T08:47:43;24.00;99.90
9949;DHT22;5013;51.840;8.276;2023-06-14T08:50:11;23.60;99.90
9949;DHT22;5013;51.840;8.276;2023-06-14T08:52:38;23.60;99.90
9949;DHT22;5013;51.840;8.276;2023-06-14T08:55:11;23.50;99.90
9949;DHT22;5013;51.840;8.276;2023-06-14T08:57:37;23.50;99.90
9949;DHT22;5013;51.840;8.276;2023-06-14T09:00:04;23.90;99.90
9949;DHT22;5013;51.840;8.276;2023-06-14T09:02:37;24.20;99.90
9949;DHT22;5013;51.840;8.276;2023-06-14T09:05:03;24.00;99.90
9949;DHT22;5013;51.840;8.276;2023-06-14T09:07:29;23.70;99.90
9949;DHT22;5013;51.840;8.276;2023-06-14T09:10:12;23.90;99.90
9949;DHT22;5013;51.840;8.276;2023-06-14T09:12:38;24.10;99.90
9949;DHT22;5013;51.840;8.276;2023-06-14T09:15:05;24.30;99.90
9949;DHT22;5013;51.840;8.276;2023-06-14T09:17:34;24.60;99.90
9949;DHT22;5013;51.840;8.276;2023-06-14T09:20:02;24.70;99.90
9949;DHT22;5013;51.840;8.276;2023-06-14T09:22:30;24.70;99.90
9949;DHT22;5013;51.840;8.276;2023-06-14T09:24:56;24.70;99.90
9949;DHT22;5013;51.840;8.276;2023-06-14T09:27:21;25.00;99.90
9949;DHT22;5013;51.840;8.276;2023-06-14T09:29:47;24.50;99.90
9949;DHT22;5013;51.840;8.276;2023-06-14T09:32:12;24.20;99.90
9949;DHT22;5013;51.840;8.276;2023-06-14T09:34:38;24.50;99.90
9949;DHT22;5013;51.840;8.276;2023-06-14T09:37:04;24.50;99.90
9949;DHT22;5013;51.840;8.276;2023-06-14T09:39:30;24.50;99.90
9949;DHT22;5013;51.840;8.276;2023-06-14T09:41:55;24.60;99.90
9949;DHT22;5013;51.840;8.276;2023-06-14T09:44:21;24.60;99.90
9949;DHT22;5013;51.840;8.276;2023-06-14T09:46:50;24.80;99.90
9949;DHT22;5013;51.840;8.276;2023-06-14T09:49:16;24.90;99.90
9949;DHT22;5013;51.840;8.276;2023-06-14T09:51:43;24.70;99.90
9949;DHT22;5013;51.840;8.276;2023-06-14T09:54:15;24.50;99.90
9949;DHT22;5013;51.840;8.276;2023-06-14T09:56:47;24.40;99.90
9949;DHT22;5013;51.840;8.276;2023-06-14T09:59:12;24.30;99.90
9949;DHT22;5013;51.840;8.276;2023-06-14T10:01:42;24.30;99.90
9949;DHT22;5013;51.840;8.276;2023-06-14T10:04:09;23.90;99.90
9949;DHT22;5013;51.840;8.276;2023-06-14T10:06:42;24.20;99.90
9949;DHT22;5013;51.840;8.276;2023-06-14T10:09:11;24.00;99.90
9949;DHT22;5013;51.840;8.276;2023-06-14T10:11:37;23.90;99.90
9949;DHT22;5013;51.840;8.276;2023-06-14T10:14:10;24.10;99.90
9949;DHT22;5013;51.840;8.276;2023-06-14T10:16:50;24.10;99.90
9949;DHT22;5013;51.840;8.276;2023-06-14T10:19:25;24.30;99.90
9949;DHT22;5013;51.840;8.276;2023-06-14T10:22:04;24.70;99.90
9949;DHT22;5013;51.840;8.276;2023-06-14T10:24:43;24.50;99.90
9949;DHT22;5013;51.840;8.276;2023-06-14T10:27:08;24.50;99.90
9949;DHT22;5013;51.840;8.276;2023-06-14T10:32:18;24.60;99.90
9949;DHT22;5013;51.840;8.276;2023-06-14T10:34:44;24.70;99.90
9949;DHT22;5013;51.840;8.276;2023-06-14T10:37:14;24.90;99.90
9949;DHT22;5013;51.840;8.276;2023-06-14T10:39:41;25.10;99.90
9949;DHT22;5013;51.840;8.276;2023-06-14T10:42:07;25.20;99.90
9949;DHT22;5013;51.840;8.276;2023-06-14T10:52:24;25.80;99.90
9949;DHT22;5013;51.840;8.276;2023-06-14T10:57:32;25.70;99.90
9949;DHT22;5013;51.840;8.276;2023-06-14T10:59:59;25.70;99.90
9949;DHT22;5013;51.840;8.276;2023-06-14T11:05:14;25.90;99.90
9949;DHT22;5013;51.840;8.276;2023-06-14T11:10:44;25.70;99.90
9949;DHT22;5013;51.840;8.276;2023-06-14T11:13:16;25.70;99.90
9949;DHT22;5013;51.840;8.276;2023-06-14T11:15:44;25.90;99.90
9949;DHT22;5013;51.840;8.276;2023-06-14T11:18:12;26.30;99.90
9949;DHT22;5013;51.840;8.276;2023-06-14T11:20:39;26.60;99.90
9949;DHT22;5013;51.840;8.276;2023-06-14T11:23:05;26.40;99.90
9949;DHT22;5013;51.840;8.276;2023-06-14T11:25:31;25.80;99.90
9949;DHT22;5013;51.840;8.276;2023-06-14T11:27:57;25.50;99.90
9949;DHT22;5013;51.840;8.276;2023-06-14T11:30:24;25.40;99.90
9949;DHT22;5013;51.840;8.276;2023-06-14T11:32:51;25.30;99.90
9949;DHT22;5013;51.840;8.276;2023-06-14T11:35:19;25.50;99.90
9949;DHT22;5013;51.840;8.276;2023-06-14T11:37:47;26.00;99.90
9949;DHT22;5013;51.840;8.276;2023-06-14T11:40:14;26.00;99.90
9949;DHT22;5013;51.840;8.276;2023-06-14T11:42:40;26.20;99.90
9949;DHT22;5013;51.840;8.276;2023-06-14T11:45:11;26.30;99.90
9949;DHT22;5013;51.840;8.276;2023-06-14T11:47:38;26.40;99.90
9949;DHT22;5013;51.840;8.276;2023-06-14T11:50:06;26.80;99.90
9949;DHT22;5013;51.840;8.276;2023-06-14T11:52:32;26.70;99.90
9949;DHT22;5013;51.840;8.276;2023-06-14T11:54:58;26.40;99.90
9949;DHT22;5013;51.840;8.276;2023-06-14T11:57:24;26.80;99.90
9949;DHT22;5013;51.840;8.276;2023-06-14T11:59:50;26.90;99.90
9949;DHT22;5013;51.840;8.276;2023-06-14T12:02:17;26.50;99.90
9949;DHT22;5013;51.840;8.276;2023-06-14T12:04:44;26.20;99.90
9949;DHT22;5013;51.840;8.276;2023-06-14T12:07:13;25.90;99.90
9949;DHT22;5013;51.840;8.276;2023-06-14T12:10:03;25.30;99.90
9949;DHT22;5013;51.840;8.276;2023-06-14T12:12:35;25.60;99.90
9949;DHT22;5013;51.840;8.276;2023-06-14T12:15:03;26.00;99.90
9949;DHT22;5013;51.840;8.276;2023-06-14T12:17:32;25.80;99.90
9949;DHT22;5013;51.840;8.276;2023-06-14T12:19:58;25.80;99.90
9949;DHT22;5013;51.840;8.276;2023-06-14T12:22:23;25.60;99.90
9949;DHT22;5013;51.840;8.276;2023-06-14T12:24:49;25.30;99.90
9949;DHT22;5013;51.840;8.276;2023-06-14T12:27:16;25.40;99.90
9949;DHT22;5013;51.840;8.276;2023-06-14T12:29:44;25.80;99.90
9949;DHT22;5013;51.840;8.276;2023-06-14T12:32:10;26.20;99.90
9949;DHT22;5013;51.840;8.276;2023-06-14T12:34:36;26.30;99.90
9949;DHT22;5013;51.840;8.276;2023-06-14T12:37:02;26.20;99.90
9949;DHT22;5013;51.840;8.276;2023-06-14T12:39:29;25.90;99.90
9949;DHT22;5013;51.840;8.276;2023-06-14T12:41:57;25.70;99.90
9949;DHT22;5013;51.840;8.276;2023-06-14T12:44:23;25.50;99.90
9949;DHT22;5013;51.840;8.276;2023-06-14T12:46:48;25.70;99.90
9949;DHT22;5013;51.840;8.276;2023-06-14T12:49:16;26.10;99.90
9949;DHT22;5013;51.840;8.276;2023-06-14T12:51:42;26.30;99.90
9949;DHT22;5013;51.840;8.276;2023-06-14T12:54:08;26.30;99.90
9949;DHT22;5013;51.840;8.276;2023-06-14T12:56:34;26.30;99.90
9949;DHT22;5013;51.840;8.276;2023-06-14T12:58:59;26.30;99.90
9949;DHT22;5013;51.840;8.276;2023-06-14T13:01:25;26.30;99.90
9949;DHT22;5013;51.840;8.276;2023-06-14T13:03:51;26.30;99.90
9949;DHT22;5013;51.840;8.276;2023-06-14T13:06:21;26.20;99.90
9949;DHT22;5013;51.840;8.276;2023-06-14T13:08:48;26.30;99.90
9949;DHT22;5013;51.840;8.276;2023-06-14T13:11:14;26.20;99.90
9949;DHT22;5013;51.840;8.276;2023-06-14T13:13:39;26.30;99.90
9949;DHT22;5013;51.840;8.276;2023-06-14T13:16:05;26.40;99.90
9949;DHT22;5013;51.840;8.276;2023-06-14T13:18:31;26.90;99.90
9949;DHT22;5013;51.840;8.276;2023-06-14T13:20:56;26.80;99.90
9949;DHT22;5013;51.840;8.276;2023-06-14T13:23:22;26.70;99.90
9949;DHT22;5013;51.840;8.276;2023-06-14T13:25:47;26.70;99.90
9949;DHT22;5013;51.840;8.276;2023-06-14T13:28:15;26.70;99.90
9949;DHT22;5013;51.840;8.276;2023-06-14T13:30:41;26.60;99.90
9949;DHT22;5013;51.840;8.276;2023-06-14T13:33:06;26.40;99.90
9949;DHT22;5013;51.840;8.276;2023-06-14T13:35:32;26.10;99.90
9949;DHT22;5013;51.840;8.276;2023-06-14T13:37:58;26.20;99.90
9949;DHT22;5013;51.840;8.276;2023-06-14T13:40:23;26.60;99.90
9949;DHT22;5013;51.840;8.276;2023-06-14T13:42:49;26.40;99.90
9949;DHT22;5013;51.840;8.276;2023-06-14T13:45:15;26.20;99.90
9949;DHT22;5013;51.840;8.276;2023-06-14T13:47:40;26.20;99.90
9949;DHT22;5013;51.840;8.276;2023-06-14T13:50:06;26.10;99.90
9949;DHT22;5013;51.840;8.276;2023-06-14T13:52:32;26.00;99.90
9949;DHT22;5013;51.840;8.276;2023-06-14T13:54:58;26.10;99.90
9949;DHT22;5013;51.840;8.276;2023-06-14T13:57:23;26.40;99.90
9949;DHT22;5013;51.840;8.276;2023-06-14T13:59:49;26.60;99.90
9949;DHT22;5013;51.840;8.276;2023-06-14T14:02:15;27.00;99.90
9949;DHT22;5013;51.840;8.276;2023-06-14T14:04:41;27.00;99.90
9949;DHT22;5013;51.840;8.276;2023-06-14T14:07:07;27.30;99.90
9949;DHT22;5013;51.840;8.276;2023-06-14T14:09:33;27.30;99.90
9949;DHT22;5013;51.840;8.276;2023-06-14T14:12:00;27.40;99.90
9949;DHT22;5013;51.840;8.276;2023-06-14T14:14:26;27.30;99.90
9949;DHT22;5013;51.840;8.276;2023-06-14T14:16:52;27.00;99.90
9949;DHT22;5013;51.840;8.276;2023-06-14T14:19:20;27.00;99.90
9949;DHT22;5013;51.840;8.276;2023-06-14T14:21:47;26.90;99.90
9949;DHT22;5013;51.840;8.276;2023-06-14T14:24:12;26.90;99.90
9949;DHT22;5013;51.840;8.276;2023-06-14T14:26:38;26.90;99.90
9949;DHT22;5013;51.840;8.276;2023-06-14T14:29:04;26.90;99.90
9949;DHT22;5013;51.840;8.276;2023-06-14T14:31:30;27.10;99.90
9949;DHT22;5013;51.840;8.276;2023-06-14T14:33:55;27.20;99.90
9949;DHT22;5013;51.840;8.276;2023-06-14T14:36:21;27.20;99.90
9949;DHT22;5013;51.840;8.276;2023-06-14T14:38:47;27.10;99.90
9949;DHT22;5013;51.840;8.276;2023-06-14T14:41:13;27.10;99.90
9949;DHT22;5013;51.840;8.276;2023-06-14T14:43:39;27.10;99.90
9949;DHT22;5013;51.840;8.276;2023-06-14T14:46:05;26.90;99.90
9949;DHT22;5013;51.840;8.276;2023-06-14T14:48:30;26.60;99.90
9949;DHT22;5013;51.840;8.276;2023-06-14T14:50:56;26.70;99.90
9949;DHT22;5013;51.840;8.276;2023-06-14T14:53:22;26.50;99.90
9949;DHT22;5013;51.840;8.276;2023-06-14T14:55:48;26.30;99.90
9949;DHT22;5013;51.840;8.276;2023-06-14T14:58:13;26.10;99.90
9949;DHT22;5013;51.840;8.276;2023-06-14T15:00:46;26.60;99.90
9949;DHT22;5013;51.840;8.276;2023-06-14T15:03:12;26.80;99.90
9949;DHT22;5013;51.840;8.276;2023-06-14T15:05:37;26.90;99.90
9949;DHT22;5013;51.840;8.276;2023-06-14T15:08:04;27.00;99.90
9949;DHT22;5013;51.840;8.276;2023-06-14T15:10:30;27.20;99.90
9949;DHT22;5013;51.840;8.276;2023-06-14T15:12:56;27.00;99.90
9949;DHT22;5013;51.840;8.276;2023-06-14T15:15:22;26.80;99.90
9949;DHT22;5013;51.840;8.276;2023-06-14T15:17:48;26.60;99.90
9949;DHT22;5013;51.840;8.276;2023-06-14T15:20:13;26.50;99.90
9949;DHT22;5013;51.840;8.276;2023-06-14T15:22:40;26.30;99.90
9949;DHT22;5013;51.840;8.276;2023-06-14T15:25:06;26.10;99.90
9949;DHT22;5013;51.840;8.276;2023-06-14T15:27:32;26.20;99.90
9949;DHT22;5013;51.840;8.276;2023-06-14T15:29:57;26.30;99.90
9949;DHT22;5013;51.840;8.276;2023-06-14T15:32:23;26.20;99.90
9949;DHT22;5013;51.840;8.276;2023-06-14T15:34:49;26.40;99.90
9949;DHT22;5013;51.840;8.276;2023-06-14T15:37:14;26.50;99.90
9949;DHT22;5013;51.840;8.276;2023-06-14T15:39:40;26.50;99.90
9949;DHT22;5013;51.840;8.276;2023-06-14T15:42:06;26.60;99.90
9949;DHT22;5013;51.840;8.276;2023-06-14T15:44:33;26.90;99.90
9949;DHT22;5013;51.840;8.276;2023-06-14T15:46:59;26.90;99.90
9949;DHT22;5013;51.840;8.276;2023-06-14T15:49:24;27.00;99.90
9949;DHT22;5013;51.840;8.276;2023-06-14T15:51:51;27.10;99.90
9949;DHT22;5013;51.840;8.276;2023-06-14T15:54:16;27.20;99.90
9949;DHT22;5013;51.840;8.276;2023-06-14T15:56:42;26.80;99.90
9949;DHT22;5013;51.840;8.276;2023-06-14T15:59:07;26.60;99.90
9949;DHT22;5013;51.840;8.276;2023-06-14T16:01:33;26.30;99.90
9949;DHT22;5013;51.840;8.276;2023-06-14T16:03:59;26.10;99.90
9949;DHT22;5013;51.840;8.276;2023-06-14T16:06:24;26.00;99.90
9949;DHT22;5013;51.840;8.276;2023-06-14T16:08:51;26.00;99.90
9949;DHT22;5013;51.840;8.276;2023-06-14T16:11:18;26.00;99.90
9949;DHT22;5013;51.840;8.276;2023-06-14T16:13:45;26.00;99.90
9949;DHT22;5013;51.840;8.276;2023-06-14T16:16:10;26.10;99.90
9949;DHT22;5013;51.840;8.276;2023-06-14T16:18:36;26.10;99.90
9949;DHT22;5013;51.840;8.276;2023-06-14T16:21:02;26.00;99.90
9949;DHT22;5013;51.840;8.276;2023-06-14T16:23:29;26.00;99.90
9949;DHT22;5013;51.840;8.276;2023-06-14T16:25:55;26.10;99.90
9949;DHT22;5013;51.840;8.276;2023-06-14T16:28:20;26.20;99.90